Time;durP1;ratioP1;P1;durP2;ratioP2;P2;SDS_P1;SDS_P2;PMS_P1;PMS_P2;Temp;Humidity;BMP_temperature;BMP_pressure;BME280_temperature;BME280_humidity;BME280_pressure;Samples;Min_cycle;Max_cycle;Signal;HPM_P1;HPM_P2
2021/06/06 00:01:31;;;;;;;15.18;13.77;;;17.70;99.90;;;;;;5073059;28;20230;-61
2021/06/06 00:04:00;;;;;;;14.40;13.00;;;17.70;99.90;;;;;;5073285;28;20216;-61
2021/06/06 00:06:31;;;;;;;14.27;13.00;;;17.70;99.90;;;;;;5072850;28;20200;-61
2021/06/06 00:09:00;;;;;;;14.70;13.43;;;17.70;99.90;;;;;;5072937;28;20181;-60
2021/06/06 00:11:29;;;;;;;13.43;12.23;;;17.70;99.90;;;;;;5072993;28;20200;-61
2021/06/06 00:13:59;;;;;;;14.45;13.15;;;17.70;99.90;;;;;;5082573;28;20283;-60
2021/06/06 00:16:29;;;;;;;17.90;16.30;;;17.70;99.90;;;;;;5093047;28;20211;-60
2021/06/06 00:18:57;;;;;;;16.95;15.45;;;17.70;99.90;;;;;;5093125;28;20210;-60
2021/06/06 00:21:26;;;;;;;14.88;13.48;;;17.70;99.90;;;;;;5092634;28;20208;-61
2021/06/06 00:23:59;;;;;;;16.63;15.10;;;17.70;99.90;;;;;;5093100;28;20203;-61
2021/06/06 00:26:27;;;;;;;14.70;13.23;;;17.70;99.90;;;;;;5093012;28;20203;-60
2021/06/06 00:28:54;;;;;;;14.25;12.95;;;17.70;99.90;;;;;;5092852;28;20196;-61
2021/06/06 00:31:22;;;;;;;15.35;13.85;;;17.70;99.90;;;;;;5092593;28;20563;-60
2021/06/06 00:33:50;;;;;;;15.52;14.02;;;17.60;99.90;;;;;;5092845;28;20227;-60
2021/06/06 00:36:19;;;;;;;15.10;13.60;;;17.60;99.90;;;;;;5092701;28;20292;-61
2021/06/06 00:38:47;;;;;;;15.60;14.10;;;17.60;99.90;;;;;;5092749;28;20295;-60
2021/06/06 00:41:19;;;;;;;15.48;13.90;;;17.60;99.90;;;;;;5092790;28;20307;-60
2021/06/06 00:43:47;;;;;;;15.10;13.77;;;17.60;99.90;;;;;;5092349;28;20557;-60
2021/06/06 00:46:15;;;;;;;15.15;13.73;;;17.70;99.90;;;;;;5092597;28;20550;-60
2021/06/06 00:48:43;;;;;;;16.02;14.40;;;17.70;99.90;;;;;;5092725;28;20253;-60
2021/06/06 00:51:18;;;;;;;15.40;13.93;;;17.70;99.90;;;;;;5092118;28;20210;-60
2021/06/06 00:53:48;;;;;;;15.27;13.95;;;17.70;99.90;;;;;;5092495;28;20200;-60
2021/06/06 00:56:22;;;;;;;14.70;13.40;;;17.70;99.90;;;;;;5092800;28;20184;-60
2021/06/06 00:58:52;;;;;;;15.57;14.23;;;17.70;99.90;;;;;;5092737;28;20185;-60
2021/06/06 01:01:21;;;;;;;15.95;14.55;;;17.70;99.90;;;;;;5092603;28;20204;-61
2021/06/06 01:03:49;;;;;;;15.50;14.10;;;17.70;99.90;;;;;;5092674;28;20683;-60
2021/06/06 01:06:22;;;;;;;15.40;13.88;;;17.60;99.90;;;;;;5092456;28;20199;-60
2021/06/06 01:08:50;;;;;;;15.57;14.02;;;17.60;99.90;;;;;;5092474;28;20185;-61
2021/06/06 01:11:26;;;;;;;17.58;15.98;;;17.60;99.90;;;;;;5092350;28;20649;-61
2021/06/06 01:13:59;;;;;;;14.50;13.20;;;17.60;99.90;;;;;;5083469;28;20208;-60
2021/06/06 01:16:33;;;;;;;15.05;13.75;;;17.60;99.90;;;;;;5072321;28;20288;-61
2021/06/06 01:19:07;;;;;;;16.20;14.73;;;17.60;99.90;;;;;;5073606;28;20200;-60
2021/06/06 01:22:05;;;;;;;16.42;14.93;;;17.60;99.90;;;;;;5075747;28;20185;-61
2021/06/06 01:24:36;;;;;;;15.20;13.82;;;17.60;99.90;;;;;;5075988;28;20184;-60
2021/06/06 01:27:07;;;;;;;16.92;15.43;;;17.60;99.90;;;;;;5075707;28;20185;-61
2021/06/06 01:29:43;;;;;;;15.57;14.18;;;17.60;99.90;;;;;;5075869;28;20181;-60
2021/06/06 01:32:17;;;;;;;14.32;12.93;;;17.70;99.90;;;;;;5075844;28;20192;-59
2021/06/06 01:34:49;;;;;;;13.95;12.57;;;17.70;99.90;;;;;;5075495;28;20644;-60
2021/06/06 01:37:21;;;;;;;15.45;13.98;;;17.70;99.90;;;;;;5075947;28;20192;-60
2021/06/06 01:39:55;;;;;;;16.17;14.57;;;17.70;99.90;;;;;;5075756;28;20192;-60
2021/06/06 01:42:28;;;;;;;15.73;14.23;;;17.70;99.90;;;;;;5075760;28;20177;-60
2021/06/06 01:45:00;;;;;;;15.68;14.23;;;17.70;99.90;;;;;;5075750;28;20181;-61
2021/06/06 01:47:28;;;;;;;14.93;13.43;;;17.70;99.90;;;;;;5075672;28;20547;-60
2021/06/06 01:49:58;;;;;;;16.30;14.80;;;17.70;99.90;;;;;;5075516;28;20201;-60
2021/06/06 01:52:32;;;;;;;14.85;13.55;;;17.70;99.90;;;;;;5075212;28;20256;-60
2021/06/06 01:55:02;;;;;;;15.40;13.85;;;17.60;99.90;;;;;;5075453;28;20248;-60
2021/06/06 01:57:31;;;;;;;16.35;14.82;;;17.60;99.90;;;;;;5075617;28;20185;-61
2021/06/06 02:00:00;;;;;;;16.70;15.10;;;17.60;99.90;;;;;;5075540;28;20201;-60
2021/06/06 02:02:27;;;;;;;16.40;14.82;;;17.70;99.90;;;;;;5075151;28;20285;-60
2021/06/06 02:04:55;;;;;;;16.45;14.95;;;17.70;99.90;;;;;;5075257;28;20196;-60
2021/06/06 02:07:27;;;;;;;17.35;15.65;;;17.70;99.90;;;;;;5075007;28;20207;-61
2021/06/06 02:09:59;;;;;;;16.02;14.63;;;17.70;99.90;;;;;;5075052;28;20185;-60
2021/06/06 02:12:32;;;;;;;18.13;16.40;;;17.70;99.90;;;;;;5075316;28;20238;-60
2021/06/06 02:15:01;;;;;;;16.58;15.07;;;17.70;99.90;;;;;;5093567;28;20601;-60
2021/06/06 02:17:30;;;;;;;17.67;16.05;;;17.70;99.90;;;;;;5095345;28;20196;-60
2021/06/06 02:19:58;;;;;;;17.52;15.93;;;17.70;99.90;;;;;;5094988;28;20204;-59
2021/06/06 02:22:27;;;;;;;19.38;17.65;;;17.70;99.90;;;;;;5094983;28;20200;-60
2021/06/06 02:24:55;;;;;;;16.98;15.40;;;17.70;99.90;;;;;;5094948;28;20211;-61
2021/06/06 02:27:29;;;;;;;19.45;17.55;;;17.70;99.90;;;;;;5094854;28;20291;-61
2021/06/06 02:30:09;;;;;;;20.88;18.85;;;17.60;99.90;;;;;;5093780;28;20184;-60
2021/06/06 02:32:42;;;;;;;19.98;18.15;;;17.60;99.90;;;;;;5094964;28;20200;-60
2021/06/06 02:35:16;;;;;;;20.15;18.25;;;17.60;99.90;;;;;;5094893;28;20271;-60
2021/06/06 02:37:48;;;;;;;21.67;19.55;;;17.70;99.90;;;;;;5094928;28;20191;-60
2021/06/06 02:40:23;;;;;;;20.55;18.60;;;17.70;99.90;;;;;;5094291;28;20647;-60
2021/06/06 02:42:52;;;;;;;21.63;19.38;;;17.70;99.90;;;;;;5094697;28;20186;-60
2021/06/06 02:45:24;;;;;;;22.02;19.83;;;17.70;99.90;;;;;;5094754;28;20291;-60
2021/06/06 02:47:55;;;;;;;19.92;18.02;;;17.70;99.90;;;;;;5094780;28;20207;-61
2021/06/06 02:50:26;;;;;;;22.25;20.00;;;17.60;99.90;;;;;;5094228;28;20257;-60
2021/06/06 02:52:57;;;;;;;20.35;18.40;;;17.60;99.90;;;;;;5094244;28;20238;-60
2021/06/06 02:55:28;;;;;;;22.70;20.42;;;17.60;99.90;;;;;;5094420;28;20207;-60
2021/06/06 02:58:00;;;;;;;23.25;20.77;;;17.60;99.90;;;;;;5094653;28;20287;-60
2021/06/06 03:00:35;;;;;;;23.33;20.95;;;17.60;99.90;;;;;;5094448;28;20268;-60
2021/06/06 03:03:09;;;;;;;22.27;19.90;;;17.60;99.90;;;;;;5094516;28;20180;-60
2021/06/06 03:05:36;;;;;;;21.95;19.65;;;17.60;99.90;;;;;;5093922;28;20188;-61
2021/06/06 03:08:07;;;;;;;21.08;18.95;;;17.60;99.90;;;;;;5094332;28;20244;-60
2021/06/06 03:10:37;;;;;;;22.95;20.75;;;17.60;99.90;;;;;;5094233;28;20267;-61
2021/06/06 03:13:07;;;;;;;23.42;21.02;;;17.60;99.90;;;;;;5091820;28;20215;-60
2021/06/06 03:15:40;;;;;;;24.63;22.13;;;17.60;99.90;;;;;;5073942;28;20188;-62
2021/06/06 03:18:09;;;;;;;25.27;22.73;;;17.60;99.90;;;;;;5073942;28;20181;-60
2021/06/06 03:20:41;;;;;;;25.50;22.98;;;17.60;99.90;;;;;;5073661;28;20235;-60
2021/06/06 03:23:11;;;;;;;25.85;23.15;;;17.60;99.90;;;;;;5073419;28;20192;-60
2021/06/06 03:25:43;;;;;;;21.90;19.65;;;17.60;99.90;;;;;;5073386;28;20562;-60
2021/06/06 03:28:14;;;;;;;22.35;20.10;;;17.60;99.90;;;;;;5073599;28;20189;-61
2021/06/06 03:30:45;;;;;;;23.08;20.77;;;17.60;99.90;;;;;;5073658;28;20215;-61
2021/06/06 03:33:16;;;;;;;22.42;20.05;;;17.60;99.90;;;;;;5073505;28;20266;-61
2021/06/06 03:35:43;;;;;;;20.17;18.13;;;17.60;99.90;;;;;;5073128;28;20647;-59
2021/06/06 03:38:12;;;;;;;21.95;19.65;;;17.70;99.90;;;;;;5073284;28;20573;-60
2021/06/06 03:40:44;;;;;;;20.90;18.80;;;17.70;99.90;;;;;;5073099;28;20201;-60
2021/06/06 03:43:15;;;;;;;21.00;18.88;;;17.70;99.90;;;;;;5072945;28;20529;-60
2021/06/06 03:45:44;;;;;;;20.05;18.10;;;17.70;99.90;;;;;;5073342;28;20185;-61
2021/06/06 03:48:11;;;;;;;19.63;17.73;;;17.70;99.90;;;;;;5073212;28;20549;-60
2021/06/06 03:50:41;;;;;;;18.90;17.10;;;17.80;99.90;;;;;;5072822;28;20243;-60
2021/06/06 03:53:10;;;;;;;17.83;16.05;;;17.80;99.90;;;;;;5072590;28;20752;-60
2021/06/06 03:55:37;;;;;;;18.27;16.35;;;17.80;99.90;;;;;;5072886;28;20201;-60
2021/06/06 03:58:06;;;;;;;17.33;15.63;;;17.80;99.90;;;;;;5072495;28;20296;-60
2021/06/06 04:00:38;;;;;;;18.98;17.17;;;17.80;99.90;;;;;;5072783;28;20207;-60
2021/06/06 04:03:07;;;;;;;17.60;15.95;;;17.80;99.90;;;;;;5073081;28;20181;-61
2021/06/06 04:05:35;;;;;;;16.92;15.43;;;17.80;99.90;;;;;;5072821;28;20204;-60
2021/06/06 04:08:03;;;;;;;18.65;16.83;;;17.90;99.90;;;;;;5072880;28;20204;-60
2021/06/06 04:10:30;;;;;;;17.65;15.95;;;17.90;99.90;;;;;;5054992;28;20200;-60
2021/06/06 04:12:58;;;;;;;18.00;16.40;;;18.00;99.90;;;;;;5074196;28;20299;-61
2021/06/06 04:15:25;;;;;;;17.63;16.02;;;18.10;99.90;;;;;;5092814;28;20723;-60
2021/06/06 04:17:53;;;;;;;16.60;15.00;;;18.10;99.90;;;;;;5092739;28;20200;-59
2021/06/06 04:20:24;;;;;;;16.00;14.57;;;18.10;99.90;;;;;;5092951;28;20211;-60
2021/06/06 04:22:51;;;;;;;15.60;14.18;;;18.30;99.90;;;;;;5093034;28;20275;-60
2021/06/06 04:25:19;;;;;;;15.52;14.13;;;18.30;99.90;;;;;;5092625;28;20206;-60
2021/06/06 04:27:46;;;;;;;15.02;13.63;;;18.30;99.90;;;;;;5093074;28;20206;-60
2021/06/06 04:30:15;;;;;;;14.10;12.80;;;18.30;99.90;;;;;;5092678;28;20517;-60
2021/06/06 04:32:42;;;;;;;14.10;12.90;;;18.40;99.90;;;;;;5092552;28;20667;-60
2021/06/06 04:35:10;;;;;;;13.02;11.82;;;18.40;99.90;;;;;;5092743;28;20222;-61
2021/06/06 04:37:39;;;;;;;12.30;11.20;;;18.40;99.90;;;;;;5092997;28;20207;-61
2021/06/06 04:40:08;;;;;;;13.75;12.55;;;18.30;99.90;;;;;;5092417;28;20200;-60
2021/06/06 04:42:36;;;;;;;12.52;11.32;;;18.20;99.90;;;;;;5092841;28;20226;-61
2021/06/06 04:45:05;;;;;;;12.32;11.18;;;18.10;99.90;;;;;;5092787;28;20196;-61
2021/06/06 04:47:32;;;;;;;12.05;11.00;;;18.10;99.90;;;;;;5092565;28;20648;-61
2021/06/06 04:50:00;;;;;;;13.07;11.88;;;18.10;99.90;;;;;;5092676;28;20227;-60
2021/06/06 04:52:35;;;;;;;13.50;12.20;;;18.10;99.90;;;;;;5092148;28;20232;-60
2021/06/06 04:55:07;;;;;;;14.05;12.65;;;18.10;99.90;;;;;;5095610;28;20675;-61
2021/06/06 04:57:34;;;;;;;14.57;13.20;;;18.10;99.90;;;;;;5096594;28;20187;-60
2021/06/06 05:00:02;;;;;;;14.27;12.98;;;18.30;99.90;;;;;;5096732;28;20207;-61
2021/06/06 05:02:29;;;;;;;14.27;12.93;;;18.40;99.90;;;;;;5096764;28;20205;-60
2021/06/06 05:04:56;;;;;;;15.25;13.70;;;18.50;99.90;;;;;;5096272;28;20686;-60
2021/06/06 05:07:23;;;;;;;16.02;14.50;;;18.50;99.90;;;;;;5096659;28;20202;-60
2021/06/06 05:09:51;;;;;;;14.80;13.40;;;18.50;99.90;;;;;;5096129;28;20644;-60
2021/06/06 05:12:20;;;;;;;15.60;14.10;;;18.50;99.90;;;;;;5096618;28;20200;-61
2021/06/06 05:14:47;;;;;;;16.13;14.68;;;18.50;99.90;;;;;;5079663;28;20303;-60
2021/06/06 05:17:14;;;;;;;14.98;13.57;;;18.60;99.90;;;;;;5075795;28;20201;-61
2021/06/06 05:19:42;;;;;;;14.73;13.43;;;18.60;99.90;;;;;;5076096;28;20284;-60
2021/06/06 05:22:09;;;;;;;15.80;14.40;;;18.70;99.90;;;;;;5076033;28;20203;-61
2021/06/06 05:24:36;;;;;;;14.43;13.13;;;18.70;99.90;;;;;;5075901;28;20287;-61
2021/06/06 05:27:05;;;;;;;14.90;13.52;;;18.70;99.90;;;;;;5075595;28;20400;-60
2021/06/06 05:29:33;;;;;;;14.40;13.10;;;18.70;99.90;;;;;;5075648;28;20678;-60
2021/06/06 05:32:01;;;;;;;14.57;13.27;;;18.70;99.90;;;;;;5075820;28;20288;-61
2021/06/06 05:34:29;;;;;;;15.43;13.85;;;18.80;99.90;;;;;;5075208;28;20707;-61
2021/06/06 05:36:56;;;;;;;14.05;12.73;;;19.00;99.90;;;;;;5075438;28;20546;-61
2021/06/06 05:39:23;;;;;;;14.27;12.93;;;19.00;99.90;;;;;;5075551;28;20196;-60
2021/06/06 05:41:51;;;;;;;13.60;12.32;;;19.20;99.90;;;;;;5075741;28;20197;-60
2021/06/06 05:44:18;;;;;;;12.02;11.02;;;19.30;99.90;;;;;;5075563;28;20193;-60
2021/06/06 05:46:47;;;;;;;12.73;11.57;;;19.30;99.90;;;;;;5075582;28;20207;-62
2021/06/06 05:49:14;;;;;;;12.93;11.52;;;19.30;99.90;;;;;;5075494;28;20196;-61
2021/06/06 05:51:42;;;;;;;13.50;12.38;;;19.30;99.90;;;;;;5075070;28;20235;-62
2021/06/06 05:54:09;;;;;;;13.38;12.27;;;19.40;99.90;;;;;;5075259;28;20228;-61
2021/06/06 05:56:36;;;;;;;12.50;11.50;;;19.50;99.90;;;;;;5075026;28;20207;-59
2021/06/06 05:59:04;;;;;;;13.63;12.43;;;19.40;99.90;;;;;;5075399;28;20200;-62
2021/06/06 06:01:31;;;;;;;12.95;11.77;;;19.40;99.90;;;;;;5075347;28;20201;-62
2021/06/06 06:04:00;;;;;;;13.60;12.30;;;19.40;99.90;;;;;;5075151;28;20305;-61
2021/06/06 06:06:27;;;;;;;12.52;11.45;;;19.50;99.90;;;;;;5075048;28;20196;-59
2021/06/06 06:08:55;;;;;;;11.88;10.82;;;19.70;99.90;;;;;;5075124;28;20292;-61
2021/06/06 06:11:23;;;;;;;11.45;10.55;;;19.80;99.90;;;;;;5074965;28;20212;-62
2021/06/06 06:13:53;;;;;;;12.43;11.32;;;20.00;99.90;;;;;;5083382;28;20580;-61
2021/06/06 06:16:27;;;;;;;13.10;11.82;;;20.10;99.90;;;;;;5095082;28;20931;-60
2021/06/06 06:18:56;;;;;;;9.90;9.00;;;20.30;99.90;;;;;;5094982;28;20636;-60
2021/06/06 06:21:26;;;;;;;11.02;10.02;;;20.40;99.90;;;;;;5094991;28;20203;-60
2021/06/06 06:23:54;;;;;;;9.77;8.98;;;20.50;99.90;;;;;;5094840;28;20536;-60
2021/06/06 06:26:22;;;;;;;10.40;9.38;;;20.60;99.90;;;;;;5094838;28;20784;-61
2021/06/06 06:28:51;;;;;;;10.13;9.23;;;20.80;99.90;;;;;;5094735;28;20206;-61
2021/06/06 06:31:19;;;;;;;9.80;8.98;;;20.90;99.90;;;;;;5094942;28;20196;-60
2021/06/06 06:33:47;;;;;;;11.10;10.20;;;21.10;99.90;;;;;;5094740;28;20196;-61
2021/06/06 06:36:17;;;;;;;10.65;9.70;;;21.30;99.90;;;;;;5094460;28;20200;-61
2021/06/06 06:38:50;;;;;;;9.95;9.05;;;21.60;99.90;;;;;;5094755;28;20196;-60
2021/06/06 06:41:18;;;;;;;11.10;10.20;;;21.90;99.90;;;;;;5094773;28;20219;-60
2021/06/06 06:43:46;;;;;;;11.77;10.68;;;22.10;99.90;;;;;;5094389;28;20571;-60
2021/06/06 06:46:13;;;;;;;11.07;10.18;;;22.20;99.90;;;;;;5094679;28;20291;-60
2021/06/06 06:48:41;;;;;;;11.48;10.48;;;22.30;99.90;;;;;;5094393;28;20273;-61
2021/06/06 06:51:09;;;;;;;10.23;9.43;;;22.50;99.90;;;;;;5094081;28;20226;-60
2021/06/06 06:53:40;;;;;;;12.40;11.30;;;22.60;99.90;;;;;;5094576;28;20316;-61
2021/06/06 06:56:08;;;;;;;12.48;11.48;;;22.60;99.90;;;;;;5094431;28;20232;-60
2021/06/06 06:58:36;;;;;;;10.52;9.63;;;22.60;99.90;;;;;;5094331;28;20210;-61
2021/06/06 07:01:04;;;;;;;13.10;11.95;;;22.50;99.90;;;;;;5094268;28;20200;-61
2021/06/06 07:03:33;;;;;;;13.20;12.07;;;22.80;99.90;;;;;;5079296;28;20303;-61
2021/06/06 07:06:05;;;;;;;12.27;11.13;;;22.80;99.90;;;;;;5073507;28;20181;-61
2021/06/06 07:08:35;;;;;;;10.30;9.50;;;22.70;99.90;;;;;;5073814;28;20191;-61
2021/06/06 07:11:03;;;;;;;10.45;9.55;;;22.50;99.90;;;;;;5073387;28;20621;-61
2021/06/06 07:13:33;;;;;;;11.68;10.20;;;22.60;99.90;;;;;;5079546;28;20200;-60
2021/06/06 07:16:01;;;;;;;10.50;9.70;;;22.80;99.90;;;;;;5093520;28;20226;-62
2021/06/06 07:18:29;;;;;;;11.05;10.02;;;23.10;99.90;;;;;;5094006;28;20204;-61
2021/06/06 07:20:59;;;;;;;11.30;10.30;;;23.30;99.90;;;;;;5093484;28;20663;-60
2021/06/06 07:23:28;;;;;;;12.02;10.93;;;23.40;99.90;;;;;;5093814;28;20180;-61
2021/06/06 07:25:58;;;;;;;9.90;9.00;;;23.50;99.90;;;;;;5093759;28;20218;-63
2021/06/06 07:28:27;;;;;;;12.30;11.20;;;23.50;99.90;;;;;;5093817;28;20630;-60
2021/06/06 07:30:58;;;;;;;12.77;11.68;;;23.50;99.90;;;;;;5093260;28;20749;-62
2021/06/06 07:33:30;;;;;;;12.20;11.20;;;23.50;99.90;;;;;;5093399;28;20188;-64
2021/06/06 07:35:58;;;;;;;13.30;12.20;;;23.40;99.90;;;;;;5093126;28;20587;-61
2021/06/06 07:38:25;;;;;;;10.63;9.50;;;23.40;99.90;;;;;;5080603;28;20203;-61
2021/06/06 07:40:55;;;;;;;11.68;10.68;;;23.30;99.90;;;;;;5061760;28;20215;-61
2021/06/06 07:43:23;;;;;;;9.95;9.15;;;23.20;99.90;;;;;;5073005;28;20209;-61
2021/06/06 07:45:50;;;;;;;12.70;11.60;;;23.10;99.90;;;;;;5072949;28;20197;-61
2021/06/06 07:48:20;;;;;;;11.60;10.65;;;23.00;99.90;;;;;;5073166;28;20298;-61
2021/06/06 07:50:49;;;;;;;12.07;11.07;;;22.90;99.90;;;;;;5072982;28;20204;-62
2021/06/06 07:53:18;;;;;;;10.43;9.52;;;22.90;99.90;;;;;;5072692;28;20231;-61
2021/06/06 07:55:46;;;;;;;14.30;13.10;;;22.90;99.90;;;;;;5072813;28;20307;-62
2021/06/06 07:58:18;;;;;;;13.57;12.30;;;23.00;99.90;;;;;;5073111;28;20228;-61
2021/06/06 08:00:46;;;;;;;12.50;11.20;;;22.90;99.90;;;;;;5073033;28;20279;-61
2021/06/06 08:03:13;;;;;;;12.13;11.10;;;23.20;99.90;;;;;;5072972;28;20227;-61
2021/06/06 08:05:43;;;;;;;13.15;12.07;;;23.20;99.90;;;;;;5072852;28;20250;-61
2021/06/06 08:08:12;;;;;;;14.35;13.15;;;23.60;99.90;;;;;;5072969;28;20200;-62
2021/06/06 08:10:44;;;;;;;13.93;12.82;;;24.20;99.90;;;;;;5072459;28;20550;-62
2021/06/06 08:13:11;;;;;;;12.70;11.50;;;24.30;99.90;;;;;;5075777;28;20627;-61
2021/06/06 08:15:40;;;;;;;14.55;13.35;;;24.20;99.90;;;;;;5092698;28;20220;-62
2021/06/06 08:18:09;;;;;;;13.55;12.45;;;24.20;99.90;;;;;;5093099;28;20210;-64
2021/06/06 08:20:40;;;;;;;12.52;11.52;;;24.00;99.90;;;;;;5092900;28;20203;-63
2021/06/06 08:23:09;;;;;;;12.50;11.50;;;23.90;99.90;;;;;;5093062;28;20191;-63
2021/06/06 08:25:38;;;;;;;12.05;11.05;;;23.60;99.90;;;;;;5092824;28;20196;-61
2021/06/06 08:28:07;;;;;;;12.50;11.40;;;23.30;99.90;;;;;;5079002;28;20288;-62
2021/06/06 08:30:37;;;;;;;12.07;11.07;;;23.10;99.90;;;;;;5072619;28;20204;-62
2021/06/06 08:33:06;;;;;;;11.05;10.15;;;23.10;99.90;;;;;;5072676;28;20189;-63
2021/06/06 08:35:49;;;;;;;11.50;10.50;;;22.90;99.90;;;;;;5072481;28;20240;-61
2021/06/06 08:38:19;;;;;;;12.20;11.27;;;22.70;99.90;;;;;;5072715;28;20279;-61
2021/06/06 08:40:51;;;;;;;12.07;10.98;;;22.70;99.90;;;;;;5072442;28;20196;-61
2021/06/06 08:43:20;;;;;;;11.63;10.73;;;22.80;99.90;;;;;;5072761;28;20276;-62
2021/06/06 08:45:50;;;;;;;11.45;10.55;;;22.70;99.90;;;;;;5072507;28;20212;-61
2021/06/06 08:48:20;;;;;;;11.93;10.93;;;22.60;99.90;;;;;;5072221;28;20185;-61
2021/06/06 08:50:51;;;;;;;13.38;12.27;;;22.60;99.90;;;;;;5072524;28;20200;-63
2021/06/06 08:53:26;;;;;;;13.05;12.05;;;22.70;99.90;;;;;;5052270;28;20820;-61
2021/06/06 08:56:04;;;;;;;13.10;12.02;;;22.90;99.90;;;;;;5052277;28;20303;-61
2021/06/06 08:58:41;;;;;;;14.75;13.45;;;23.10;99.90;;;;;;5052374;28;20276;-60
2021/06/06 09:01:16;;;;;;;14.70;13.50;;;23.40;99.90;;;;;;5052225;28;20272;-61
2021/06/06 09:03:44;;;;;;;13.13;12.02;;;23.60;99.90;;;;;;5052355;28;20188;-60
2021/06/06 09:06:17;;;;;;;15.73;14.32;;;23.70;99.90;;;;;;5052071;28;20582;-62
2021/06/06 09:08:46;;;;;;;15.30;14.00;;;23.70;99.90;;;;;;5051375;28;20224;-61
2021/06/06 09:11:17;;;;;;;13.77;12.63;;;23.80;99.90;;;;;;5051555;28;20201;-61
2021/06/06 09:13:44;;;;;;;13.60;12.60;;;23.80;99.90;;;;;;5059605;28;20215;-61
2021/06/06 09:16:16;;;;;;;14.32;12.93;;;23.90;99.90;;;;;;5052095;28;20259;-62
2021/06/06 09:18:47;;;;;;;16.17;14.75;;;24.00;99.90;;;;;;5051938;28;20196;-61
2021/06/06 09:21:18;;;;;;;15.65;14.25;;;24.50;99.90;;;;;;5051975;28;20182;-61
2021/06/06 09:23:48;;;;;;;14.80;13.50;;;24.90;99.90;;;;;;5052017;28;20280;-60
2021/06/06 09:26:23;;;;;;;14.30;13.10;;;25.20;99.90;;;;;;5052140;28;20555;-61
2021/06/06 09:29:08;;;;;;;16.75;15.25;;;25.50;99.90;;;;;;5051902;28;20219;-62
2021/06/06 09:31:37;;;;;;;13.85;12.57;;;25.80;99.90;;;;;;5051721;28;20605;-62
2021/06/06 09:34:08;;;;;;;13.65;12.55;;;25.70;99.90;;;;;;5051714;28;20301;-62
2021/06/06 09:36:38;;;;;;;14.77;13.45;;;25.60;99.90;;;;;;5051514;28;20857;-62
2021/06/06 09:39:17;;;;;;;14.35;13.15;;;25.60;99.90;;;;;;5051417;28;20301;-62
2021/06/06 09:41:47;;;;;;;15.68;14.35;;;25.40;99.90;;;;;;5055425;28;20504;-62
2021/06/06 09:44:25;;;;;;;13.90;12.80;;;25.40;99.90;;;;;;5055042;28;20190;-61
2021/06/06 09:46:54;;;;;;;11.35;10.45;;;25.60;99.90;;;;;;5055448;28;20182;-62
2021/06/06 09:49:27;;;;;;;12.35;11.32;;;25.70;99.90;;;;;;5055450;28;20205;-62
2021/06/06 09:51:56;;;;;;;11.35;10.45;;;26.00;99.90;;;;;;5063491;28;20340;-62
2021/06/06 09:54:32;;;;;;;11.35;10.45;;;26.00;99.90;;;;;;5075155;28;20212;-62
2021/06/06 09:57:04;;;;;;;10.93;9.98;;;26.20;99.90;;;;;;5075059;28;20196;-61
2021/06/06 09:59:35;;;;;;;10.10;9.20;;;26.20;99.90;;;;;;5056916;28;20193;-62
2021/06/06 10:02:05;;;;;;;10.68;9.57;;;26.10;99.90;;;;;;5075155;28;20280;-61
2021/06/06 10:04:35;;;;;;;9.20;8.50;;;26.00;99.90;;;;;;5074723;28;20185;-62
2021/06/06 10:07:13;;;;;;;10.18;9.18;;;26.10;99.90;;;;;;5074987;28;20235;-61
2021/06/06 10:09:49;;;;;;;10.88;10.07;;;26.10;99.90;;;;;;5074689;28;20276;-61
2021/06/06 10:12:26;;;;;;;11.02;10.00;;;26.00;99.90;;;;;;5074863;28;20222;-62
2021/06/06 10:14:57;;;;;;;11.73;10.73;;;25.60;99.90;;;;;;5092146;28;20225;-62
2021/06/06 10:17:34;;;;;;;12.38;11.27;;;25.90;99.90;;;;;;5094909;28;20245;-62
2021/06/06 10:20:11;;;;;;;10.93;10.13;;;26.00;99.90;;;;;;5094936;28;20184;-62
2021/06/06 10:22:41;;;;;;;12.15;11.15;;;25.50;99.90;;;;;;5095050;28;20187;-60
2021/06/06 10:25:16;;;;;;;11.77;10.82;;;25.50;99.90;;;;;;5094590;28;20275;-62
2021/06/06 10:27:46;;;;;;;12.15;11.15;;;25.00;99.90;;;;;;5095001;28;20180;-62
2021/06/06 10:30:21;;;;;;;11.10;10.30;;;24.90;99.90;;;;;;5094934;28;20202;-61
2021/06/06 10:32:54;;;;;;;12.05;10.80;;;25.10;99.90;;;;;;5094584;28;20544;-61
2021/06/06 10:35:25;;;;;;;11.25;10.35;;;25.40;99.90;;;;;;5094768;28;20237;-62
2021/06/06 10:37:55;;;;;;;11.15;10.05;;;25.40;99.90;;;;;;5094520;28;20190;-61
2021/06/06 10:40:28;;;;;;;10.20;9.30;;;25.10;99.90;;;;;;5094725;28;20219;-62
2021/06/06 10:43:00;;;;;;;10.27;9.38;;;25.20;99.90;;;;;;5094406;28;20548;-60
2021/06/06 10:45:32;;;;;;;10.55;9.65;;;25.10;99.90;;;;;;5094896;28;20181;-61
2021/06/06 10:48:06;;;;;;;10.65;9.75;;;25.10;99.90;;;;;;5094773;28;20271;-61
2021/06/06 10:50:40;;;;;;;10.35;9.55;;;25.20;99.90;;;;;;5093939;28;20212;-62
2021/06/06 10:53:12;;;;;;;10.57;9.75;;;25.20;99.90;;;;;;5093602;28;20238;-61
2021/06/06 10:56:06;;;;;;;9.48;8.68;;;25.40;99.90;;;;;;5093982;28;20219;-60
2021/06/06 10:58:59;;;;;;;11.02;9.95;;;25.50;99.90;;;;;;5094288;28;20184;-61
2021/06/06 11:01:44;;;;;;;10.70;9.80;;;25.60;99.90;;;;;;5091549;28;20200;-62
2021/06/06 11:04:15;;;;;;;9.63;8.90;;;26.00;99.90;;;;;;5094518;28;20650;-61
2021/06/06 11:06:47;;;;;;;10.82;9.82;;;26.20;99.90;;;;;;5094012;28;20290;-62
2021/06/06 11:09:26;;;;;;;11.40;10.40;;;26.00;99.90;;;;;;5094200;28;20216;-60
2021/06/06 11:12:00;;;;;;;11.18;10.18;;;25.80;99.90;;;;;;5094377;28;20180;-61
2021/06/06 11:14:37;;;;;;;12.00;10.82;;;25.60;99.90;;;;;;5079979;28;20643;-61
2021/06/06 11:17:15;;;;;;;9.88;8.93;;;25.50;99.90;;;;;;5069946;28;20239;-61
2021/06/06 11:19:43;;;;;;;10.48;9.35;;;25.10;99.90;;;;;;5072043;28;20200;-62
2021/06/06 11:22:30;;;;;;;9.50;8.80;;;24.90;99.90;;;;;;5073597;28;20288;-62
2021/06/06 11:24:58;;;;;;;9.90;9.00;;;25.00;99.90;;;;;;5063012;28;20194;-64
2021/06/06 11:27:32;;;;;;;11.40;10.50;;;25.00;99.90;;;;;;5064439;28;20218;-61
2021/06/06 11:30:06;;;;;;;10.77;9.88;;;24.80;99.90;;;;;;5093595;28;20275;-62
2021/06/06 11:32:41;;;;;;;11.02;10.13;;;24.60;99.90;;;;;;5093203;28;20270;-62
2021/06/06 11:35:21;;;;;;;12.63;11.63;;;24.40;99.90;;;;;;5093245;28;20605;-61
2021/06/06 11:37:51;;;;;;;11.35;10.45;;;24.40;99.90;;;;;;5081920;28;20192;-61
2021/06/06 11:40:33;;;;;;;10.57;9.68;;;24.40;99.90;;;;;;5072913;28;20291;-62
2021/06/06 11:43:16;;;;;;;12.30;11.30;;;24.30;99.90;;;;;;5073606;28;20211;-62
2021/06/06 11:45:47;;;;;;;11.68;10.68;;;24.30;99.90;;;;;;5073593;28;20188;-61
2021/06/06 11:48:23;;;;;;;10.50;9.45;;;24.20;99.90;;;;;;5073401;28;20223;-61
2021/06/06 11:50:56;;;;;;;10.38;9.65;;;24.30;99.90;;;;;;5071789;28;20583;-62
2021/06/06 11:53:30;;;;;;;10.13;9.32;;;24.50;99.90;;;;;;5052619;28;20191;-60
2021/06/06 11:56:10;;;;;;;9.27;8.57;;;24.60;99.90;;;;;;5052750;28;20220;-61
2021/06/06 11:58:42;;;;;;;10.13;9.23;;;24.90;99.90;;;;;;5051436;28;20197;-62
2021/06/06 12:01:14;;;;;;;9.57;8.88;;;25.00;99.90;;;;;;5052308;28;20276;-61
2021/06/06 12:03:44;;;;;;;9.00;8.30;;;25.40;99.90;;;;;;5051998;28;20185;-62
2021/06/06 12:06:15;;;;;;;9.30;8.50;;;25.60;99.90;;;;;;5052658;28;20193;-62
2021/06/06 12:08:46;;;;;;;9.95;9.18;;;25.80;99.90;;;;;;5052167;28;20205;-60
2021/06/06 12:11:25;;;;;;;9.82;9.02;;;25.60;99.90;;;;;;5052411;28;20236;-62
2021/06/06 12:14:06;;;;;;;9.50;8.68;;;25.70;99.90;;;;;;5061572;28;20550;-61
2021/06/06 12:16:34;;;;;;;10.05;9.15;;;25.90;99.90;;;;;;5072525;28;20201;-61
2021/06/06 12:19:06;;;;;;;9.80;9.00;;;26.00;99.90;;;;;;5072646;28;20257;-61
2021/06/06 12:21:36;;;;;;;9.65;8.85;;;26.00;99.90;;;;;;5052455;28;20197;-61
2021/06/06 12:24:09;;;;;;;9.07;8.38;;;26.10;99.90;;;;;;5051891;28;20217;-62
2021/06/06 12:26:42;;;;;;;9.30;8.52;;;26.20;99.90;;;;;;5052445;28;20629;-63
2021/06/06 12:29:11;;;;;;;9.15;8.35;;;26.30;99.90;;;;;;5052492;28;20218;-62
2021/06/06 12:31:41;;;;;;;8.73;8.02;;;26.40;99.90;;;;;;5052061;28;20744;-63
2021/06/06 12:34:15;;;;;;;9.30;8.68;;;26.30;99.90;;;;;;5052573;28;20190;-62
2021/06/06 12:36:44;;;;;;;9.88;9.07;;;26.40;99.90;;;;;;5051981;28;20220;-61
2021/06/06 12:39:17;;;;;;;11.00;10.10;;;26.10;99.90;;;;;;5052199;28;20542;-62
2021/06/06 12:41:51;;;;;;;11.90;11.00;;;26.10;99.90;;;;;;5052298;28;20276;-61
2021/06/06 12:44:23;;;;;;;12.70;11.50;;;26.20;99.90;;;;;;5052574;28;20220;-62
2021/06/06 12:46:54;;;;;;;13.32;12.20;;;26.00;99.90;;;;;;5052499;28;20182;-62
2021/06/06 12:49:50;;;;;;;10.23;9.52;;;25.90;99.90;;;;;;5052336;28;20190;-61